sensor_id;sensor_type;location;lat;lon;timestamp;pressure;altitude;pressure_sealevel;temperature;humidity
39823;BME280;25499;53.958;10.970;2023-05-15T05:05:14;101043.41;;;11.35;100.00
39823;BME280;25499;53.958;10.970;2023-05-15T05:07:41;101038.22;;;11.26;100.00
39823;BME280;25499;53.958;10.970;2023-05-15T05:10:10;101033.91;;;11.18;100.00
39823;BME280;25499;53.958;10.970;2023-05-15T05:12:37;101028.66;;;11.22;100.00
39823;BME280;25499;53.958;10.970;2023-05-15T05:15:05;101035.63;;;11.26;100.00
39823;BME280;25499;53.958;10.970;2023-05-15T05:17:32;101034.72;;;11.25;100.00
39823;BME280;25499;53.958;10.970;2023-05-15T05:19:59;101036.47;;;11.22;100.00
39823;BME280;25499;53.958;10.970;2023-05-15T05:22:27;101036.47;;;11.25;100.00
39823;BME280;25499;53.958;10.970;2023-05-15T05:24:55;101040.84;;;11.27;100.00
39823;BME280;25499;53.958;10.970;2023-05-15T05:27:22;101034.72;;;11.28;100.00
39823;BME280;25499;53.958;10.970;2023-05-15T05:29:48;101047.75;;;11.33;100.00
39823;BME280;25499;53.958;10.970;2023-05-15T05:32:17;101047.75;;;11.36;100.00
39823;BME280;25499;53.958;10.970;2023-05-15T05:34:44;101039.91;;;11.42;100.00
39823;BME280;25499;53.958;10.970;2023-05-15T05:37:11;101051.22;;;11.46;100.00
39823;BME280;25499;53.958;10.970;2023-05-15T05:39:40;101045.97;;;11.52;100.00
39823;BME280;25499;53.958;10.970;2023-05-15T05:42:07;101048.59;;;11.55;100.00
39823;BME280;25499;53.958;10.970;2023-05-15T05:44:33;101051.16;;;11.64;100.00
39823;BME280;25499;53.958;10.970;2023-05-15T05:47:00;101044.19;;;11.74;100.00
39823;BME280;25499;53.958;10.970;2023-05-15T05:49:28;101043.28;;;11.86;100.00
39823;BME280;25499;53.958;10.970;2023-05-15T05:51:55;101042.41;;;11.93;100.00
39823;BME280;25499;53.958;10.970;2023-05-15T05:54:21;101044.97;;;12.07;100.00
39823;BME280;25499;53.958;10.970;2023-05-15T05:56:49;101046.66;;;12.16;100.00
39823;BME280;25499;53.958;10.970;2023-05-15T05:59:16;101052.72;;;12.25;100.00
39823;BME280;25499;53.958;10.970;2023-05-15T06:01:43;101047.44;;;12.31;100.00
39823;BME280;25499;53.958;10.970;2023-05-15T06:04:10;101046.50;;;12.43;100.00
39823;BME280;25499;53.958;10.970;2023-05-15T06:06:37;101043.78;;;12.59;100.00
39823;BME280;25499;53.958;10.970;2023-05-15T06:09:03;101046.31;;;12.73;100.00
39823;BME280;25499;53.958;10.970;2023-05-15T06:11:31;101045.41;;;12.80;100.00
39823;BME280;25499;53.958;10.970;2023-05-15T06:14:00;101037.50;;;12.87;100.00
39823;BME280;25499;53.958;10.970;2023-05-15T06:16:26;101033.78;;;13.12;100.00
39823;BME280;25499;53.958;10.970;2023-05-15T06:18:53;101033.72;;;13.22;100.00
39823;BME280;25499;53.958;10.970;2023-05-15T06:21:20;101033.69;;;13.24;100.00
39823;BME280;25499;53.958;10.970;2023-05-15T06:23:47;101032.75;;;13.34;100.00
39823;BME280;25499;53.958;10.970;2023-05-15T06:26:14;101033.50;;;13.46;100.00
39823;BME280;25499;53.958;10.970;2023-05-15T06:28:41;101022.13;;;13.50;100.00
39823;BME280;25499;53.958;10.970;2023-05-15T06:31:09;101024.59;;;13.62;100.00
39823;BME280;25499;53.958;10.970;2023-05-15T06:33:36;101025.41;;;13.67;100.00
39823;BME280;25499;53.958;10.970;2023-05-15T06:36:03;101021.84;;;13.73;100.00
39823;BME280;25499;53.958;10.970;2023-05-15T06:38:30;101022.56;;;13.87;100.00
39823;BME280;25499;53.958;10.970;2023-05-15T06:40:57;101023.41;;;13.89;100.00
39823;BME280;25499;53.958;10.970;2023-05-15T06:43:23;101018.09;;;13.95;100.00
39823;BME280;25499;53.958;10.970;2023-05-15T06:45:51;101014.59;;;13.96;100.00
39823;BME280;25499;53.958;10.970;2023-05-15T06:48:19;101015.19;;;14.17;100.00
39823;BME280;25499;53.958;10.970;2023-05-15T06:50:45;101011.63;;;14.23;100.00
39823;BME280;25499;53.958;10.970;2023-05-15T06:53:12;101007.22;;;14.25;100.00
39823;BME280;25499;53.958;10.970;2023-05-15T06:55:39;101011.38;;;14.41;100.00
39823;BME280;25499;53.958;10.970;2023-05-15T06:58:06;101008.63;;;14.47;100.00
39823;BME280;25499;53.958;10.970;2023-05-15T07:00:32;101001.53;;;14.55;100.00
39823;BME280;25499;53.958;10.970;2023-05-15T07:02:59;100997.94;;;14.64;100.00
39823;BME280;25499;53.958;10.970;2023-05-15T07:05:28;100988.19;;;14.72;100.00
39823;BME280;25499;53.958;10.970;2023-05-15T07:07:55;100993.06;;;14.96;100.00
39823;BME280;25499;53.958;10.970;2023-05-15T07:10:22;100989.16;;;15.18;100.00
39823;BME280;25499;53.958;10.970;2023-05-15T07:12:49;100991.00;;;15.58;100.00
39823;BME280;25499;53.958;10.970;2023-05-15T07:15:16;100984.09;;;15.98;98.10
39823;BME280;25499;53.958;10.970;2023-05-15T07:17:43;100975.06;;;16.85;93.87
39823;BME280;25499;53.958;10.970;2023-05-15T07:20:10;100957.06;;;17.35;88.26
39823;BME280;25499;53.958;10.970;2023-05-15T07:22:39;100932.41;;;17.69;82.85
39823;BME280;25499;53.958;10.970;2023-05-15T07:25:06;100917.19;;;18.07;79.24
39823;BME280;25499;53.958;10.970;2023-05-15T07:27:33;100908.28;;;18.38;76.43
39823;BME280;25499;53.958;10.970;2023-05-15T07:30:00;100917.84;;;18.69;75.98
39823;BME280;25499;53.958;10.970;2023-05-15T07:32:28;100895.50;;;18.79;73.88
39823;BME280;25499;53.958;10.970;2023-05-15T07:34:55;100885.03;;;18.76;71.10
39823;BME280;25499;53.958;10.970;2023-05-15T07:37:22;100888.06;;;18.90;71.30
39823;BME280;25499;53.958;10.970;2023-05-15T07:39:50;100884.28;;;18.47;71.33
39823;BME280;25499;53.958;10.970;2023-05-15T07:42:17;100887.72;;;17.96;71.94
39823;BME280;25499;53.958;10.970;2023-05-15T07:44:44;100901.59;;;18.01;72.53
39823;BME280;25499;53.958;10.970;2023-05-15T07:47:11;100885.66;;;18.04;71.75
39823;BME280;25499;53.958;10.970;2023-05-15T07:49:38;100898.88;;;18.57;71.31
39823;BME280;25499;53.958;10.970;2023-05-15T07:52:05;100894.53;;;19.07;71.09
39823;BME280;25499;53.958;10.970;2023-05-15T07:54:33;100881.69;;;19.21;68.90
39823;BME280;25499;53.958;10.970;2023-05-15T07:57:01;100883.00;;;19.80;68.06
39823;BME280;25499;53.958;10.970;2023-05-15T07:59:28;100866.22;;;19.57;67.43
39823;BME280;25499;53.958;10.970;2023-05-15T08:01:56;100867.72;;;19.65;66.77
39823;BME280;25499;53.958;10.970;2023-05-15T08:04:22;100873.41;;;19.54;66.98
39823;BME280;25499;53.958;10.970;2023-05-15T08:06:49;100836.81;;;19.67;64.33
39823;BME280;25499;53.958;10.970;2023-05-15T08:09:16;100852.28;;;19.54;65.24
39823;BME280;25499;53.958;10.970;2023-05-15T08:11:43;100840.00;;;19.53;64.09
39823;BME280;25499;53.958;10.970;2023-05-15T08:14:12;100845.53;;;19.47;63.89
39823;BME280;25499;53.958;10.970;2023-05-15T08:16:39;100841.28;;;18.95;64.54
39823;BME280;25499;53.958;10.970;2023-05-15T08:19:06;100867.72;;;18.94;66.77
39823;BME280;25499;53.958;10.970;2023-05-15T08:21:35;100874.41;;;19.73;66.55
39823;BME280;25499;53.958;10.970;2023-05-15T08:24:03;100850.94;;;20.32;64.32
39823;BME280;25499;53.958;10.970;2023-05-15T08:26:29;100817.94;;;20.82;62.46
39823;BME280;25499;53.958;10.970;2023-05-15T08:28:57;100825.81;;;20.83;61.81
39823;BME280;25499;53.958;10.970;2023-05-15T08:31:25;100799.47;;;20.60;60.31
39823;BME280;25499;53.958;10.970;2023-05-15T08:33:52;100819.97;;;20.13;60.81
39823;BME280;25499;53.958;10.970;2023-05-15T08:36:19;100792.03;;;20.08;60.49
39823;BME280;25499;53.958;10.970;2023-05-15T08:38:46;100800.25;;;20.00;60.59
39823;BME280;25499;53.958;10.970;2023-05-15T08:41:23;100840.59;;;20.46;62.70
39823;BME280;25499;53.958;10.970;2023-05-15T08:43:52;100813.44;;;20.63;61.57
39823;BME280;25499;53.958;10.970;2023-05-15T08:46:21;100782.69;;;20.81;59.18
39823;BME280;25499;53.958;10.970;2023-05-15T08:48:50;100778.53;;;20.95;59.11
39823;BME280;25499;53.958;10.970;2023-05-15T08:51:19;100785.63;;;21.13;58.73
39823;BME280;25499;53.958;10.970;2023-05-15T08:53:47;100783.06;;;21.12;58.93
39823;BME280;25499;53.958;10.970;2023-05-15T08:56:14;100780.19;;;21.54;58.42
39823;BME280;25499;53.958;10.970;2023-05-15T08:58:42;100759.84;;;21.36;57.14
39823;BME280;25499;53.958;10.970;2023-05-15T09:04:35;100764.84;;;21.78;57.40
39823;BME280;25499;53.958;10.970;2023-05-15T09:07:05;100791.00;;;22.21;58.35
39823;BME280;25499;53.958;10.970;2023-05-15T09:09:32;100767.25;;;22.86;56.19
39823;BME280;25499;53.958;10.970;2023-05-15T09:12:00;100772.84;;;23.45;55.89
39823;BME280;25499;53.958;10.970;2023-05-15T09:14:29;100743.03;;;23.56;54.66
39823;BME280;25499;53.958;10.970;2023-05-15T09:27:07;100720.38;;;23.65;52.87
39823;BME280;25499;53.958;10.970;2023-05-15T09:32:44;100693.41;;;24.01;50.34
39823;BME280;25499;53.958;10.970;2023-05-15T09:35:27;100696.25;;;23.68;51.01
39823;BME280;25499;53.958;10.970;2023-05-15T09:41:23;100700.13;;;23.16;51.82
39823;BME280;25499;53.958;10.970;2023-05-15T09:44:24;100729.09;;;23.67;52.31
39823;BME280;25499;53.958;10.970;2023-05-15T09:46:58;100714.13;;;23.80;51.79
39823;BME280;25499;53.958;10.970;2023-05-15T09:49:26;100716.38;;;23.88;52.03
39823;BME280;25499;53.958;10.970;2023-05-15T09:51:54;100706.56;;;24.48;50.54
39823;BME280;25499;53.958;10.970;2023-05-15T09:54:24;100692.28;;;24.77;50.22
39823;BME280;25499;53.958;10.970;2023-05-15T09:56:52;100689.81;;;25.16;48.94
39823;BME280;25499;53.958;10.970;2023-05-15T09:59:21;100680.78;;;25.19;48.36
39823;BME280;25499;53.958;10.970;2023-05-15T10:01:49;100683.97;;;24.97;49.14
39823;BME280;25499;53.958;10.970;2023-05-15T10:04:42;100647.09;;;24.90;47.94
39823;BME280;25499;53.958;10.970;2023-05-15T10:07:09;100658.66;;;25.04;47.90
39823;BME280;25499;53.958;10.970;2023-05-15T10:09:38;100643.06;;;24.98;47.11
39823;BME280;25499;53.958;10.970;2023-05-15T10:12:08;100629.28;;;24.35;47.40
39823;BME280;25499;53.958;10.970;2023-05-15T10:14:36;100652.66;;;23.71;49.09
39823;BME280;25499;53.958;10.970;2023-05-15T10:17:03;100669.59;;;23.39;50.30
39823;BME280;25499;53.958;10.970;2023-05-15T10:19:30;100686.25;;;23.27;50.98
39823;BME280;25499;53.958;10.970;2023-05-15T10:25:25;100692.53;;;23.40;51.88
39823;BME280;25499;53.958;10.970;2023-05-15T10:27:53;100700.03;;;23.64;51.81
39823;BME280;25499;53.958;10.970;2023-05-15T10:30:21;100695.47;;;23.96;51.49
39823;BME280;25499;53.958;10.970;2023-05-15T10:32:52;100675.19;;;24.24;50.31
39823;BME280;25499;53.958;10.970;2023-05-15T10:35:21;100645.78;;;23.82;49.96
39823;BME280;25499;53.958;10.970;2023-05-15T10:37:56;100648.22;;;23.71;49.81
39823;BME280;25499;53.958;10.970;2023-05-15T10:40:23;100655.06;;;23.45;50.46
39823;BME280;25499;53.958;10.970;2023-05-15T10:42:50;100656.72;;;23.48;50.14
39823;BME280;25499;53.958;10.970;2023-05-15T10:45:22;100627.81;;;23.27;49.55
39823;BME280;25499;53.958;10.970;2023-05-15T10:47:51;100627.75;;;22.49;49.82
39823;BME280;25499;53.958;10.970;2023-05-15T10:50:18;100646.66;;;21.92;51.70
39823;BME280;25499;53.958;10.970;2023-05-15T10:52:45;100659.88;;;21.39;53.20
39823;BME280;25499;53.958;10.970;2023-05-15T10:55:15;100652.13;;;21.00;53.26
39823;BME280;25499;53.958;10.970;2023-05-15T10:57:44;100658.47;;;20.39;53.80
39823;BME280;25499;53.958;10.970;2023-05-15T11:03:35;100664.28;;;19.87;55.03
39823;BME280;25499;53.958;10.970;2023-05-15T11:06:06;100668.25;;;19.77;55.56
39823;BME280;25499;53.958;10.970;2023-05-15T11:08:34;100690.69;;;19.44;56.78
39823;BME280;25499;53.958;10.970;2023-05-15T11:11:01;100701.22;;;19.24;57.66
39823;BME280;25499;53.958;10.970;2023-05-15T11:17:02;100716.56;;;19.14;59.03
39823;BME280;25499;53.958;10.970;2023-05-15T11:22:27;100722.38;;;19.22;59.69
39823;BME280;25499;53.958;10.970;2023-05-15T11:24:58;100728.41;;;19.26;60.43
39823;BME280;25499;53.958;10.970;2023-05-15T11:27:27;100732.44;;;19.34;61.29
39823;BME280;25499;53.958;10.970;2023-05-15T11:30:05;100711.03;;;19.42;59.91
39823;BME280;25499;53.958;10.970;2023-05-15T11:32:50;100736.94;;;19.54;61.61
39823;BME280;25499;53.958;10.970;2023-05-15T11:35:21;100751.09;;;19.75;62.04
39823;BME280;25499;53.958;10.970;2023-05-15T11:37:49;100747.47;;;20.19;62.18
39823;BME280;25499;53.958;10.970;2023-05-15T11:40:19;100746.16;;;21.26;61.16
39823;BME280;25499;53.958;10.970;2023-05-15T11:43:06;100714.16;;;21.50;58.79
39823;BME280;25499;53.958;10.970;2023-05-15T11:48:39;100704.38;;;21.87;58.76
39823;BME280;25499;53.958;10.970;2023-05-15T11:51:15;100672.59;;;22.03;56.43
39823;BME280;25499;53.958;10.970;2023-05-15T11:53:42;100656.41;;;22.58;54.44
39823;BME280;25499;53.958;10.970;2023-05-15T11:56:12;100644.94;;;22.73;54.76
39823;BME280;25499;53.958;10.970;2023-05-15T11:58:39;100682.50;;;23.15;55.84
39823;BME280;25499;53.958;10.970;2023-05-15T12:04:11;100665.41;;;24.25;54.32
39823;BME280;25499;53.958;10.970;2023-05-15T12:06:40;100641.53;;;24.52;52.47
39823;BME280;25499;53.958;10.970;2023-05-15T12:09:12;100619.16;;;24.83;51.10
39823;BME280;25499;53.958;10.970;2023-05-15T12:14:56;100621.03;;;25.08;50.08
39823;BME280;25499;53.958;10.970;2023-05-15T12:17:23;100599.63;;;24.41;49.83
39823;BME280;25499;53.958;10.970;2023-05-15T12:19:52;100604.56;;;24.62;50.06
39823;BME280;25499;53.958;10.970;2023-05-15T12:22:20;100588.41;;;24.21;50.08
39823;BME280;25499;53.958;10.970;2023-05-15T12:24:47;100622.66;;;23.99;51.05
39823;BME280;25499;53.958;10.970;2023-05-15T12:27:14;100614.63;;;23.84;51.16
39823;BME280;25499;53.958;10.970;2023-05-15T12:29:41;100614.28;;;23.60;52.12
39823;BME280;25499;53.958;10.970;2023-05-15T12:32:08;100618.78;;;23.60;52.00
39823;BME280;25499;53.958;10.970;2023-05-15T12:34:40;100631.22;;;23.74;52.49
39823;BME280;25499;53.958;10.970;2023-05-15T12:40:12;100616.75;;;24.23;51.52
39823;BME280;25499;53.958;10.970;2023-05-15T12:42:40;100626.56;;;24.22;51.74
39823;BME280;25499;53.958;10.970;2023-05-15T12:45:17;100611.72;;;24.18;51.62
39823;BME280;25499;53.958;10.970;2023-05-15T12:47:46;100603.09;;;24.00;51.44
39823;BME280;25499;53.958;10.970;2023-05-15T12:50:14;100612.53;;;23.31;53.21
39823;BME280;25499;53.958;10.970;2023-05-15T12:52:46;100634.28;;;23.37;53.66
39823;BME280;25499;53.958;10.970;2023-05-15T12:55:21;100629.97;;;23.20;54.26
39823;BME280;25499;53.958;10.970;2023-05-15T12:57:48;100617.88;;;22.99;53.88
39823;BME280;25499;53.958;10.970;2023-05-15T13:00:16;100630.91;;;22.71;55.25
39823;BME280;25499;53.958;10.970;2023-05-15T13:02:48;100625.50;;;22.57;54.91
39823;BME280;25499;53.958;10.970;2023-05-15T13:05:16;100640.66;;;22.55;55.45
39823;BME280;25499;53.958;10.970;2023-05-15T13:07:43;100634.81;;;22.32;55.65
39823;BME280;25499;53.958;10.970;2023-05-15T13:10:12;100634.41;;;22.23;55.95
39823;BME280;25499;53.958;10.970;2023-05-15T13:12:42;100643.41;;;22.20;56.80
39823;BME280;25499;53.958;10.970;2023-05-15T13:15:21;100643.41;;;22.20;56.95
39823;BME280;25499;53.958;10.970;2023-05-15T13:17:51;100628.34;;;22.21;56.42
39823;BME280;25499;53.958;10.970;2023-05-15T13:20:20;100638.31;;;22.00;56.87
39823;BME280;25499;53.958;10.970;2023-05-15T13:22:47;100609.34;;;22.12;55.91
39823;BME280;25499;53.958;10.970;2023-05-15T13:25:16;100623.56;;;21.94;57.22
39823;BME280;25499;53.958;10.970;2023-05-15T13:27:44;100609.94;;;21.84;56.19
39823;BME280;25499;53.958;10.970;2023-05-15T13:30:12;100628.44;;;21.68;57.33
39823;BME280;25499;53.958;10.970;2023-05-15T13:32:39;100627.50;;;21.52;57.97
39823;BME280;25499;53.958;10.970;2023-05-15T13:35:06;100634.47;;;21.54;58.63
39823;BME280;25499;53.958;10.970;2023-05-15T13:37:34;100606.06;;;21.39;57.12
39823;BME280;25499;53.958;10.970;2023-05-15T13:40:02;100609.16;;;21.30;57.54
39823;BME280;25499;53.958;10.970;2023-05-15T13:42:30;100629.44;;;21.31;58.85
39823;BME280;25499;53.958;10.970;2023-05-15T13:44:59;100636.47;;;21.32;59.08
39823;BME280;25499;53.958;10.970;2023-05-15T13:47:26;100628.81;;;21.26;58.80
39823;BME280;25499;53.958;10.970;2023-05-15T13:49:52;100626.78;;;21.31;58.51
39823;BME280;25499;53.958;10.970;2023-05-15T13:52:19;100634.47;;;21.18;59.70
39823;BME280;25499;53.958;10.970;2023-05-15T13:54:46;100633.63;;;21.17;59.46
39823;BME280;25499;53.958;10.970;2023-05-15T13:57:13;100633.06;;;21.11;59.75
39823;BME280;25499;53.958;10.970;2023-05-15T13:59:40;100634.78;;;21.12;60.67
39823;BME280;25499;53.958;10.970;2023-05-15T14:02:08;100652.16;;;21.17;61.42
39823;BME280;25499;53.958;10.970;2023-05-15T14:04:35;100628.09;;;21.04;60.51
39823;BME280;25499;53.958;10.970;2023-05-15T14:07:02;100631.59;;;21.05;61.00
39823;BME280;25499;53.958;10.970;2023-05-15T14:09:29;100615.22;;;20.97;60.35
39823;BME280;25499;53.958;10.970;2023-05-15T14:11:55;100642.59;;;20.96;61.78
39823;BME280;25499;53.958;10.970;2023-05-15T14:14:22;100643.41;;;20.98;61.20
39823;BME280;25499;53.958;10.970;2023-05-15T14:16:49;100661.53;;;21.05;62.69
39823;BME280;25499;53.958;10.970;2023-05-15T14:19:17;100642.94;;;21.07;61.42
39823;BME280;25499;53.958;10.970;2023-05-15T14:21:44;100643.50;;;21.14;61.27
39823;BME280;25499;53.958;10.970;2023-05-15T14:24:10;100647.69;;;21.18;61.34
39823;BME280;25499;53.958;10.970;2023-05-15T14:26:37;100638.28;;;21.12;60.90
39823;BME280;25499;53.958;10.970;2023-05-15T14:29:04;100648.25;;;21.07;61.30
39823;BME280;25499;53.958;10.970;2023-05-15T14:31:31;100647.16;;;21.11;61.26
39823;BME280;25499;53.958;10.970;2023-05-15T14:33:58;100660.25;;;21.14;61.76
39823;BME280;25499;53.958;10.970;2023-05-15T14:36:27;100651.81;;;21.06;62.01
39823;BME280;25499;53.958;10.970;2023-05-15T14:38:54;100656.31;;;21.04;62.43
39823;BME280;25499;53.958;10.970;2023-05-15T14:41:22;100649.91;;;20.91;62.52
39823;BME280;25499;53.958;10.970;2023-05-15T14:43:50;100665.34;;;20.62;63.50
39823;BME280;25499;53.958;10.970;2023-05-15T14:46:17;100677.13;;;20.55;63.99
39823;BME280;25499;53.958;10.970;2023-05-15T14:48:44;100678.50;;;20.44;64.92
39823;BME280;25499;53.958;10.970;2023-05-15T14:51:11;100678.84;;;20.37;65.98
39823;BME280;25499;53.958;10.970;2023-05-15T14:53:39;100677.53;;;20.26;65.54
39823;BME280;25499;53.958;10.970;2023-05-15T14:56:06;100681.59;;;20.15;66.85
39823;BME280;25499;53.958;10.970;2023-05-15T14:58:32;100672.75;;;19.95;66.88
39823;BME280;25499;53.958;10.970;2023-05-15T15:00:59;100674.84;;;19.87;68.08
39823;BME280;25499;53.958;10.970;2023-05-15T15:03:29;100673.59;;;19.75;68.81
39823;BME280;25499;53.958;10.970;2023-05-15T15:06:08;100681.69;;;19.92;69.56
39823;BME280;25499;53.958;10.970;2023-05-15T15:08:35;100661.84;;;20.03;68.31
39823;BME280;25499;53.958;10.970;2023-05-15T15:11:07;100656.00;;;20.15;68.07
39823;BME280;25499;53.958;10.970;2023-05-15T15:13:35;100653.53;;;20.31;67.48
39823;BME280;25499;53.958;10.970;2023-05-15T15:16:03;100646.47;;;20.31;66.63
39823;BME280;25499;53.958;10.970;2023-05-15T15:18:32;100649.81;;;20.35;67.38
39823;BME280;25499;53.958;10.970;2023-05-15T15:20:59;100638.53;;;20.31;66.29
39823;BME280;25499;53.958;10.970;2023-05-15T15:23:25;100637.97;;;20.25;66.11
39823;BME280;25499;53.958;10.970;2023-05-15T15:25:52;100641.94;;;20.15;65.71
39823;BME280;25499;53.958;10.970;2023-05-15T15:28:20;100648.22;;;20.12;66.74
39823;BME280;25499;53.958;10.970;2023-05-15T15:30:47;100647.13;;;20.16;66.70
39823;BME280;25499;53.958;10.970;2023-05-15T15:33:15;100650.41;;;20.02;66.70
39823;BME280;25499;53.958;10.970;2023-05-15T15:35:44;100631.72;;;19.86;66.40
39823;BME280;25499;53.958;10.970;2023-05-15T15:48:21;100644.00;;;19.87;67.95
39823;BME280;25499;53.958;10.970;2023-05-15T15:53:57;100644.81;;;19.89;67.99
39823;BME280;25499;53.958;10.970;2023-05-15T15:56:23;100642.16;;;19.89;67.62
39823;BME280;25499;53.958;10.970;2023-05-15T15:58:51;100637.28;;;19.80;67.69
39823;BME280;25499;53.958;10.970;2023-05-15T16:01:19;100617.63;;;19.65;66.78
39823;BME280;25499;53.958;10.970;2023-05-15T16:03:48;100619.94;;;19.52;66.26
39823;BME280;25499;53.958;10.970;2023-05-15T16:06:16;100623.31;;;19.56;66.39
39823;BME280;25499;53.958;10.970;2023-05-15T16:08:43;100616.09;;;19.39;66.00
39823;BME280;25499;53.958;10.970;2023-05-15T16:11:10;100630.44;;;19.33;66.94
39823;BME280;25499;53.958;10.970;2023-05-15T16:13:38;100638.03;;;19.19;67.50
39823;BME280;25499;53.958;10.970;2023-05-15T16:16:04;100642.66;;;19.14;67.91
39823;BME280;25499;53.958;10.970;2023-05-15T16:18:31;100642.66;;;19.14;67.99
39823;BME280;25499;53.958;10.970;2023-05-15T16:20:59;100628.34;;;18.97;67.17
39823;BME280;25499;53.958;10.970;2023-05-15T16:23:26;100636.84;;;18.82;68.32
39823;BME280;25499;53.958;10.970;2023-05-15T16:25:53;100641.38;;;18.78;68.85
39823;BME280;25499;53.958;10.970;2023-05-15T16:28:20;100639.63;;;18.79;68.64
39823;BME280;25499;53.958;10.970;2023-05-15T16:30:47;100646.78;;;18.75;68.98
39823;BME280;25499;53.958;10.970;2023-05-15T16:33:15;100651.44;;;18.69;69.17
39823;BME280;25499;53.958;10.970;2023-05-15T16:35:42;100662.59;;;18.75;69.91
39823;BME280;25499;53.958;10.970;2023-05-15T16:38:10;100660.38;;;18.64;70.48
39823;BME280;25499;53.958;10.970;2023-05-15T16:40:37;100669.44;;;18.57;70.38
39823;BME280;25499;53.958;10.970;2023-05-15T16:43:04;100655.47;;;18.55;70.09
39823;BME280;25499;53.958;10.970;2023-05-15T16:45:31;100647.22;;;18.41;69.64
39823;BME280;25499;53.958;10.970;2023-05-15T16:47:58;100644.25;;;18.26;68.95
39823;BME280;25499;53.958;10.970;2023-05-15T16:50:27;100646.28;;;18.18;69.06
39823;BME280;25499;53.958;10.970;2023-05-15T16:52:54;100648.06;;;18.18;69.03
39823;BME280;25499;53.958;10.970;2023-05-15T16:55:23;100643.59;;;18.20;67.97
39823;BME280;25499;53.958;10.970;2023-05-15T16:57:49;100651.34;;;18.24;67.24
39823;BME280;25499;53.958;10.970;2023-05-15T17:00:16;100625.53;;;18.33;65.93
39823;BME280;25499;53.958;10.970;2023-05-15T17:02:46;100605.78;;;18.21;64.60
39823;BME280;25499;53.958;10.970;2023-05-15T17:05:13;100594.22;;;18.25;62.71
39823;BME280;25499;53.958;10.970;2023-05-15T17:07:40;100588.53;;;18.12;62.07
39823;BME280;25499;53.958;10.970;2023-05-15T17:10:08;100587.16;;;18.02;62.22
39823;BME280;25499;53.958;10.970;2023-05-15T17:12:37;100599.63;;;17.97;62.70
39823;BME280;25499;53.958;10.970;2023-05-15T17:15:04;100604.09;;;17.95;62.68
39823;BME280;25499;53.958;10.970;2023-05-15T17:17:31;100602.19;;;17.73;62.88
39823;BME280;25499;53.958;10.970;2023-05-15T17:19:59;100598.88;;;17.68;62.51
39823;BME280;25499;53.958;10.970;2023-05-15T17:22:25;100613.06;;;17.64;63.06
39823;BME280;25499;53.958;10.970;2023-05-15T17:24:53;100627.00;;;17.67;63.74
39823;BME280;25499;53.958;10.970;2023-05-15T17:27:20;100636.06;;;17.59;64.62
39823;BME280;25499;53.958;10.970;2023-05-15T17:29:49;100645.16;;;17.50;65.20
39823;BME280;25499;53.958;10.970;2023-05-15T17:32:16;100648.56;;;17.52;65.67
39823;BME280;25499;53.958;10.970;2023-05-15T17:34:43;100654.88;;;17.46;66.33
39823;BME280;25499;53.958;10.970;2023-05-15T17:37:10;100670.94;;;17.39;67.32
39823;BME280;25499;53.958;10.970;2023-05-15T17:39:37;100671.81;;;17.39;67.56
39823;BME280;25499;53.958;10.970;2023-05-15T17:42:05;100677.16;;;17.36;67.43
39823;BME280;25499;53.958;10.970;2023-05-15T17:44:32;100682.59;;;17.31;68.01
39823;BME280;25499;53.958;10.970;2023-05-15T17:47:00;100694.06;;;17.29;68.73
39823;BME280;25499;53.958;10.970;2023-05-15T17:49:29;100708.09;;;17.29;69.66
39823;BME280;25499;53.958;10.970;2023-05-15T17:51:58;100712.91;;;17.15;71.04
39823;BME280;25499;53.958;10.970;2023-05-15T17:54:26;100731.50;;;17.09;72.35
39823;BME280;25499;53.958;10.970;2023-05-15T17:56:52;100730.28;;;17.21;72.31
39823;BME280;25499;53.958;10.970;2023-05-15T17:59:19;100726.88;;;17.17;72.42
39823;BME280;25499;53.958;10.970;2023-05-15T18:01:47;100726.84;;;17.19;72.58
39823;BME280;25499;53.958;10.970;2023-05-15T18:04:15;100724.97;;;17.22;72.13
39823;BME280;25499;53.958;10.970;2023-05-15T18:06:42;100726.88;;;17.17;72.37
39823;BME280;25499;53.958;10.970;2023-05-15T18:09:09;100726.00;;;17.18;71.68
39823;BME280;25499;53.958;10.970;2023-05-15T18:11:40;100719.88;;;17.18;71.31
39823;BME280;25499;53.958;10.970;2023-05-15T18:14:07;100717.41;;;17.11;70.83
39823;BME280;25499;53.958;10.970;2023-05-15T18:16:34;100698.09;;;17.12;68.97
39823;BME280;25499;53.958;10.970;2023-05-15T18:19:01;100699.19;;;17.05;68.25
39823;BME280;25499;53.958;10.970;2023-05-15T18:21:29;100688.88;;;16.99;67.38
39823;BME280;25499;53.958;10.970;2023-05-15T18:23:56;100688.88;;;16.99;66.83
39823;BME280;25499;53.958;10.970;2023-05-15T18:26:23;100686.13;;;17.02;66.91
39823;BME280;25499;53.958;10.970;2023-05-15T18:28:57;100697.84;;;16.92;66.73
39823;BME280;25499;53.958;10.970;2023-05-15T18:31:27;100696.13;;;16.91;66.29
39823;BME280;25499;53.958;10.970;2023-05-15T18:33:54;100692.03;;;16.81;66.42
39823;BME280;25499;53.958;10.970;2023-05-15T18:36:21;100688.59;;;16.78;66.03
39823;BME280;25499;53.958;10.970;2023-05-15T18:38:49;100698.25;;;16.76;66.31
39823;BME280;25499;53.958;10.970;2023-05-15T18:41:16;100721.13;;;16.74;67.09
39823;BME280;25499;53.958;10.970;2023-05-15T18:43:42;100738.75;;;16.71;69.22
39823;BME280;25499;53.958;10.970;2023-05-15T18:46:09;100754.06;;;16.56;70.54